sensor_id;sensor_type;location;lat;lon;timestamp;pressure;altitude;pressure_sealevel;temperature;humidity
36828;BME280;22766;48.042;11.192;2023-05-10T00:00:20;94464.53;;;12.16;100.00
36828;BME280;22766;48.042;11.192;2023-05-10T00:02:49;94463.81;;;12.07;100.00
36828;BME280;22766;48.042;11.192;2023-05-10T00:05:16;94465.72;;;12.13;100.00
36828;BME280;22766;48.042;11.192;2023-05-10T00:07:43;94462.03;;;12.08;100.00
36828;BME280;22766;48.042;11.192;2023-05-10T00:10:12;94456.88;;;12.08;100.00
36828;BME280;22766;48.042;11.192;2023-05-10T00:12:39;94463.34;;;12.04;100.00
36828;BME280;22766;48.042;11.192;2023-05-10T00:15:07;94462.72;;;12.02;100.00
36828;BME280;22766;48.042;11.192;2023-05-10T00:17:34;94460.91;;;12.02;100.00
36828;BME280;22766;48.042;11.192;2023-05-10T00:20:01;94459.16;;;12.03;100.00
36828;BME280;22766;48.042;11.192;2023-05-10T00:22:27;94457.81;;;12.07;100.00
36828;BME280;22766;48.042;11.192;2023-05-10T00:24:54;94449.25;;;12.06;100.00
36828;BME280;22766;48.042;11.192;2023-05-10T00:27:21;94446.22;;;12.03;100.00
36828;BME280;22766;48.042;11.192;2023-05-10T00:29:47;94443.84;;;12.16;100.00
36828;BME280;22766;48.042;11.192;2023-05-10T00:32:14;94456.50;;;12.11;100.00
36828;BME280;22766;48.042;11.192;2023-05-10T00:34:42;94445.78;;;12.14;100.00
36828;BME280;22766;48.042;11.192;2023-05-10T00:37:08;94443.94;;;12.08;100.00
36828;BME280;22766;48.042;11.192;2023-05-10T00:39:35;94443.28;;;12.06;100.00
36828;BME280;22766;48.042;11.192;2023-05-10T00:42:02;94449.59;;;12.03;100.00
36828;BME280;22766;48.042;11.192;2023-05-10T00:44:29;94447.19;;;12.02;100.00
36828;BME280;22766;48.042;11.192;2023-05-10T00:46:57;94441.81;;;11.89;100.00
36828;BME280;22766;48.042;11.192;2023-05-10T00:49:26;94437.88;;;11.93;100.00
36828;BME280;22766;48.042;11.192;2023-05-10T00:51:53;94435.13;;;11.94;100.00
36828;BME280;22766;48.042;11.192;2023-05-10T00:54:19;94433.88;;;11.90;100.00
36828;BME280;22766;48.042;11.192;2023-05-10T00:56:47;94437.53;;;11.96;100.00
36828;BME280;22766;48.042;11.192;2023-05-10T00:59:16;94427.19;;;11.96;100.00
36828;BME280;22766;48.042;11.192;2023-05-10T01:01:44;94429.16;;;11.94;100.00
36828;BME280;22766;48.042;11.192;2023-05-10T01:04:13;94426.22;;;11.97;100.00
36828;BME280;22766;48.042;11.192;2023-05-10T01:06:41;94427.66;;;11.99;100.00
36828;BME280;22766;48.042;11.192;2023-05-10T01:09:08;94431.28;;;11.90;100.00
36828;BME280;22766;48.042;11.192;2023-05-10T01:11:36;94425.94;;;11.92;100.00
36828;BME280;22766;48.042;11.192;2023-05-10T01:14:03;94432.09;;;11.91;100.00
36828;BME280;22766;48.042;11.192;2023-05-10T01:16:37;94425.22;;;11.83;100.00
36828;BME280;22766;48.042;11.192;2023-05-10T01:19:08;94422.78;;;11.82;100.00
36828;BME280;22766;48.042;11.192;2023-05-10T01:22:31;94425.22;;;11.83;100.00
36828;BME280;22766;48.042;11.192;2023-05-10T01:41:18;94435.16;;;11.72;100.00
36828;BME280;22766;48.042;11.192;2023-05-10T01:46:22;94433.28;;;11.80;100.00
36828;BME280;22766;48.042;11.192;2023-05-10T01:48:55;94428.41;;;11.85;100.00
36828;BME280;22766;48.042;11.192;2023-05-10T01:51:25;94422.63;;;11.83;100.00
36828;BME280;22766;48.042;11.192;2023-05-10T01:53:59;94428.53;;;11.92;100.00
36828;BME280;22766;48.042;11.192;2023-05-10T01:56:29;94429.38;;;11.84;100.00
36828;BME280;22766;48.042;11.192;2023-05-10T01:58:58;94437.03;;;11.78;100.00
36828;BME280;22766;48.042;11.192;2023-05-10T02:01:27;94428.63;;;11.76;100.00
36828;BME280;22766;48.042;11.192;2023-05-10T02:03:55;94430.94;;;11.71;100.00
36828;BME280;22766;48.042;11.192;2023-05-10T02:06:23;94444.03;;;11.69;100.00
36828;BME280;22766;48.042;11.192;2023-05-10T02:08:52;94438.69;;;11.71;100.00
36828;BME280;22766;48.042;11.192;2023-05-10T02:11:20;94443.41;;;11.67;100.00
36828;BME280;22766;48.042;11.192;2023-05-10T02:13:49;94437.94;;;11.62;100.00
36828;BME280;22766;48.042;11.192;2023-05-10T02:16:18;94442.41;;;11.68;100.00
36828;BME280;22766;48.042;11.192;2023-05-10T02:18:48;94442.91;;;11.72;100.00
36828;BME280;22766;48.042;11.192;2023-05-10T02:21:17;94443.06;;;11.70;100.00
36828;BME280;22766;48.042;11.192;2023-05-10T02:23:44;94448.00;;;11.80;100.00
36828;BME280;22766;48.042;11.192;2023-05-10T02:26:12;94449.00;;;11.79;100.00
36828;BME280;22766;48.042;11.192;2023-05-10T02:28:42;94452.91;;;11.75;100.00
36828;BME280;22766;48.042;11.192;2023-05-10T02:31:09;94448.09;;;11.64;100.00
36828;BME280;22766;48.042;11.192;2023-05-10T02:33:39;94449.00;;;11.79;100.00
36828;BME280;22766;48.042;11.192;2023-05-10T02:36:08;94452.53;;;11.78;100.00
36828;BME280;22766;48.042;11.192;2023-05-10T02:38:36;94457.78;;;11.70;100.00
36828;BME280;22766;48.042;11.192;2023-05-10T02:41:04;94453.41;;;11.70;100.00
36828;BME280;22766;48.042;11.192;2023-05-10T02:43:33;94450.94;;;11.77;100.00
36828;BME280;22766;48.042;11.192;2023-05-10T02:46:00;94450.03;;;11.70;100.00
36828;BME280;22766;48.042;11.192;2023-05-10T02:48:27;94452.28;;;11.65;100.00
36828;BME280;22766;48.042;11.192;2023-05-10T02:50:56;94448.41;;;11.61;100.00
36828;BME280;22766;48.042;11.192;2023-05-10T02:53:34;94459.47;;;11.55;100.00
36828;BME280;22766;48.042;11.192;2023-05-10T02:56:05;94457.03;;;11.53;100.00
36828;BME280;22766;48.042;11.192;2023-05-10T02:58:36;94453.94;;;11.58;100.00
36828;BME280;22766;48.042;11.192;2023-05-10T03:01:02;94459.13;;;11.58;100.00
36828;BME280;22766;48.042;11.192;2023-05-10T03:03:29;94455.44;;;11.52;100.00
36828;BME280;22766;48.042;11.192;2023-05-10T03:05:56;94456.66;;;11.64;100.00
36828;BME280;22766;48.042;11.192;2023-05-10T03:08:24;94457.66;;;11.55;100.00
36828;BME280;22766;48.042;11.192;2023-05-10T03:13:36;94465.88;;;11.59;100.00
36828;BME280;22766;48.042;11.192;2023-05-10T03:16:20;94465.88;;;11.59;100.00
36828;BME280;22766;48.042;11.192;2023-05-10T03:18:55;94465.75;;;11.60;100.00
36828;BME280;22766;48.042;11.192;2023-05-10T03:21:25;94471.44;;;11.48;100.00
36828;BME280;22766;48.042;11.192;2023-05-10T03:24:08;94468.72;;;11.49;100.00
36828;BME280;22766;48.042;11.192;2023-05-10T03:26:40;94473.09;;;11.41;100.00
36828;BME280;22766;48.042;11.192;2023-05-10T03:29:12;94466.91;;;11.50;100.00
36828;BME280;22766;48.042;11.192;2023-05-10T03:31:40;94470.72;;;11.70;100.00
36828;BME280;22766;48.042;11.192;2023-05-10T03:34:07;94475.25;;;11.68;100.00
36828;BME280;22766;48.042;11.192;2023-05-10T03:36:34;94469.59;;;11.64;100.00
36828;BME280;22766;48.042;11.192;2023-05-10T03:39:00;94472.19;;;11.64;100.00
36828;BME280;22766;48.042;11.192;2023-05-10T03:41:27;94470.94;;;11.83;100.00
36828;BME280;22766;48.042;11.192;2023-05-10T03:43:54;94476.44;;;11.80;100.00
36828;BME280;22766;48.042;11.192;2023-05-10T03:46:21;94477.66;;;11.69;100.00
36828;BME280;22766;48.042;11.192;2023-05-10T03:48:48;94480.91;;;11.63;100.00
36828;BME280;22766;48.042;11.192;2023-05-10T03:51:14;94477.25;;;11.50;100.00
36828;BME280;22766;48.042;11.192;2023-05-10T03:53:41;94484.34;;;11.56;100.00
36828;BME280;22766;48.042;11.192;2023-05-10T03:56:07;94486.75;;;11.57;100.00
36828;BME280;22766;48.042;11.192;2023-05-10T03:58:34;94489.31;;;11.65;100.00
36828;BME280;22766;48.042;11.192;2023-05-10T04:01:01;94494.63;;;11.72;100.00
36828;BME280;22766;48.042;11.192;2023-05-10T04:03:29;94492.91;;;11.56;100.00
36828;BME280;22766;48.042;11.192;2023-05-10T04:06:02;94490.81;;;11.52;100.00
36828;BME280;22766;48.042;11.192;2023-05-10T04:08:29;94487.78;;;11.48;100.00
36828;BME280;22766;48.042;11.192;2023-05-10T04:11:09;94488.06;;;11.53;100.00
36828;BME280;22766;48.042;11.192;2023-05-10T04:13:36;94494.03;;;11.54;100.00
36828;BME280;22766;48.042;11.192;2023-05-10T04:16:03;94492.47;;;11.45;100.00
36828;BME280;22766;48.042;11.192;2023-05-10T04:18:30;94498.88;;;11.57;100.00
36828;BME280;22766;48.042;11.192;2023-05-10T04:20:58;94502.78;;;11.53;100.00
36828;BME280;22766;48.042;11.192;2023-05-10T04:23:24;94502.78;;;11.53;100.00
36828;BME280;22766;48.042;11.192;2023-05-10T04:25:51;94506.97;;;11.54;100.00
36828;BME280;22766;48.042;11.192;2023-05-10T04:28:18;94509.13;;;11.42;100.00
36828;BME280;22766;48.042;11.192;2023-05-10T04:30:44;94510.78;;;11.35;100.00
36828;BME280;22766;48.042;11.192;2023-05-10T04:33:12;94506.91;;;11.31;100.00
36828;BME280;22766;48.042;11.192;2023-05-10T04:35:38;94515.03;;;11.28;100.00
36828;BME280;22766;48.042;11.192;2023-05-10T04:38:06;94515.50;;;11.23;100.00
36828;BME280;22766;48.042;11.192;2023-05-10T04:40:33;94517.81;;;11.18;100.00
36828;BME280;22766;48.042;11.192;2023-05-10T04:43:00;94521.66;;;11.22;100.00
36828;BME280;22766;48.042;11.192;2023-05-10T04:45:27;94519.19;;;11.29;100.00
36828;BME280;22766;48.042;11.192;2023-05-10T04:47:54;94519.66;;;11.32;100.00
36828;BME280;22766;48.042;11.192;2023-05-10T04:50:20;94521.47;;;11.32;100.00
36828;BME280;22766;48.042;11.192;2023-05-10T04:52:47;94526.13;;;11.28;100.00
36828;BME280;22766;48.042;11.192;2023-05-10T04:55:14;94528.28;;;11.56;100.00
36828;BME280;22766;48.042;11.192;2023-05-10T04:57:40;94534.91;;;11.66;100.00
36828;BME280;22766;48.042;11.192;2023-05-10T05:00:07;94529.09;;;11.56;100.00
36828;BME280;22766;48.042;11.192;2023-05-10T05:02:34;94532.69;;;11.47;100.00
36828;BME280;22766;48.042;11.192;2023-05-10T05:05:01;94535.78;;;11.43;100.00
36828;BME280;22766;48.042;11.192;2023-05-10T05:07:28;94537.88;;;11.47;100.00
36828;BME280;22766;48.042;11.192;2023-05-10T05:09:55;94542.19;;;11.55;100.00
36828;BME280;22766;48.042;11.192;2023-05-10T05:12:21;94547.91;;;11.42;100.00
36828;BME280;22766;48.042;11.192;2023-05-10T05:14:48;94545.63;;;11.47;100.00
36828;BME280;22766;48.042;11.192;2023-05-10T05:17:14;94543.19;;;11.46;100.00
36828;BME280;22766;48.042;11.192;2023-05-10T05:19:41;94548.25;;;11.39;100.00
36828;BME280;22766;48.042;11.192;2023-05-10T05:22:08;94552.03;;;11.51;100.00
36828;BME280;22766;48.042;11.192;2023-05-10T05:24:35;94552.75;;;11.45;100.00
36828;BME280;22766;48.042;11.192;2023-05-10T05:27:04;94554.81;;;11.50;100.00
36828;BME280;22766;48.042;11.192;2023-05-10T05:29:31;94557.56;;;11.48;100.00
36828;BME280;22766;48.042;11.192;2023-05-10T05:31:58;94552.19;;;11.58;100.00
36828;BME280;22766;48.042;11.192;2023-05-10T05:34:24;94563.00;;;11.69;100.00
36828;BME280;22766;48.042;11.192;2023-05-10T05:36:51;94562.78;;;11.79;100.00
36828;BME280;22766;48.042;11.192;2023-05-10T05:39:18;94558.25;;;11.81;100.00
36828;BME280;22766;48.042;11.192;2023-05-10T05:41:44;94566.13;;;11.87;100.00
36828;BME280;22766;48.042;11.192;2023-05-10T05:44:12;94573.88;;;11.87;100.00
36828;BME280;22766;48.042;11.192;2023-05-10T05:46:39;94572.06;;;11.96;100.00
36828;BME280;22766;48.042;11.192;2023-05-10T05:49:05;94568.84;;;11.94;100.00
36828;BME280;22766;48.042;11.192;2023-05-10T05:51:32;94574.31;;;12.21;100.00
36828;BME280;22766;48.042;11.192;2023-05-10T05:53:58;94578.41;;;12.16;100.00
36828;BME280;22766;48.042;11.192;2023-05-10T05:56:25;94582.16;;;12.13;100.00
36828;BME280;22766;48.042;11.192;2023-05-10T05:58:52;94581.56;;;12.03;100.00
36828;BME280;22766;48.042;11.192;2023-05-10T06:01:19;94576.38;;;12.03;100.00
36828;BME280;22766;48.042;11.192;2023-05-10T06:03:46;94586.75;;;12.03;100.00
36828;BME280;22766;48.042;11.192;2023-05-10T06:06:12;94583.78;;;12.06;100.00
36828;BME280;22766;48.042;11.192;2023-05-10T06:08:39;94591.91;;;12.03;100.00
36828;BME280;22766;48.042;11.192;2023-05-10T06:11:06;94595.78;;;12.07;100.00
36828;BME280;22766;48.042;11.192;2023-05-10T06:13:33;94595.09;;;12.13;100.00
36828;BME280;22766;48.042;11.192;2023-05-10T06:16:02;94599.41;;;12.21;100.00
36828;BME280;22766;48.042;11.192;2023-05-10T06:18:29;94605.91;;;12.17;100.00
36828;BME280;22766;48.042;11.192;2023-05-10T06:20:55;94602.69;;;12.15;100.00
36828;BME280;22766;48.042;11.192;2023-05-10T06:23:22;94611.13;;;12.32;100.00
36828;BME280;22766;48.042;11.192;2023-05-10T06:25:49;94609.88;;;12.28;100.00
36828;BME280;22766;48.042;11.192;2023-05-10T06:28:15;94614.28;;;12.50;100.00
36828;BME280;22766;48.042;11.192;2023-05-10T06:30:42;94609.88;;;12.50;100.00
36828;BME280;22766;48.042;11.192;2023-05-10T06:33:09;94624.25;;;12.75;100.00
36828;BME280;22766;48.042;11.192;2023-05-10T06:35:36;94619.66;;;12.85;100.00
36828;BME280;22766;48.042;11.192;2023-05-10T06:38:03;94620.59;;;12.84;100.00
36828;BME280;22766;48.042;11.192;2023-05-10T06:40:29;94624.44;;;12.74;100.00
36828;BME280;22766;48.042;11.192;2023-05-10T06:42:56;94614.09;;;13.11;100.00
36828;BME280;22766;48.042;11.192;2023-05-10T06:45:23;94626.16;;;13.04;100.00
36828;BME280;22766;48.042;11.192;2023-05-10T06:47:49;94619.72;;;13.14;100.00
36828;BME280;22766;48.042;11.192;2023-05-10T06:50:16;94622.88;;;13.25;100.00
36828;BME280;22766;48.042;11.192;2023-05-10T06:52:43;94631.47;;;13.25;100.00
36828;BME280;22766;48.042;11.192;2023-05-10T06:55:10;94627.16;;;13.32;100.00
36828;BME280;22766;48.042;11.192;2023-05-10T06:57:36;94630.06;;;13.37;100.00
36828;BME280;22766;48.042;11.192;2023-05-10T07:00:04;94626.28;;;13.40;100.00
36828;BME280;22766;48.042;11.192;2023-05-10T07:02:31;94633.31;;;13.17;100.00
36828;BME280;22766;48.042;11.192;2023-05-10T07:04:58;94629.94;;;13.16;100.00
36828;BME280;22766;48.042;11.192;2023-05-10T07:07:28;94627.84;;;13.11;100.00
36828;BME280;22766;48.042;11.192;2023-05-10T07:09:55;94625.94;;;13.43;100.00
36828;BME280;22766;48.042;11.192;2023-05-10T07:12:23;94638.59;;;13.38;100.00
36828;BME280;22766;48.042;11.192;2023-05-10T07:14:50;94629.22;;;13.37;100.00
36828;BME280;22766;48.042;11.192;2023-05-10T07:17:17;94630.84;;;13.38;100.00
36828;BME280;22766;48.042;11.192;2023-05-10T07:19:43;94625.13;;;13.42;100.00
36828;BME280;22766;48.042;11.192;2023-05-10T07:22:10;94632.81;;;13.50;100.00
36828;BME280;22766;48.042;11.192;2023-05-10T07:24:37;94636.75;;;13.46;100.00
36828;BME280;22766;48.042;11.192;2023-05-10T07:27:04;94632.28;;;13.55;100.00
36828;BME280;22766;48.042;11.192;2023-05-10T07:29:30;94641.22;;;13.67;100.00
36828;BME280;22766;48.042;11.192;2023-05-10T07:31:57;94647.59;;;13.79;100.00
36828;BME280;22766;48.042;11.192;2023-05-10T07:34:24;94643.28;;;13.86;100.00
36828;BME280;22766;48.042;11.192;2023-05-10T07:36:51;94638.09;;;13.71;100.00
36828;BME280;22766;48.042;11.192;2023-05-10T07:39:18;94637.81;;;13.66;100.00
36828;BME280;22766;48.042;11.192;2023-05-10T07:41:54;94640.50;;;13.58;100.00
36828;BME280;22766;48.042;11.192;2023-05-10T07:44:21;94636.56;;;13.62;100.00
36828;BME280;22766;48.042;11.192;2023-05-10T07:46:47;94640.31;;;13.74;100.00
36828;BME280;22766;48.042;11.192;2023-05-10T07:49:14;94642.56;;;13.92;100.00
36828;BME280;22766;48.042;11.192;2023-05-10T07:51:41;94651.28;;;14.20;100.00
36828;BME280;22766;48.042;11.192;2023-05-10T07:54:09;94643.91;;;14.38;100.00
36828;BME280;22766;48.042;11.192;2023-05-10T07:56:35;94638.59;;;14.46;100.00
36828;BME280;22766;48.042;11.192;2023-05-10T07:59:03;94643.25;;;14.51;100.00
36828;BME280;22766;48.042;11.192;2023-05-10T08:01:35;94641.81;;;14.48;100.00
36828;BME280;22766;48.042;11.192;2023-05-10T08:04:02;94639.03;;;14.50;100.00
36828;BME280;22766;48.042;11.192;2023-05-10T08:06:29;94630.47;;;14.49;100.00
36828;BME280;22766;48.042;11.192;2023-05-10T08:08:56;94632.34;;;14.41;100.00
36828;BME280;22766;48.042;11.192;2023-05-10T08:11:24;94627.72;;;14.22;100.00
36828;BME280;22766;48.042;11.192;2023-05-10T08:13:52;94638.72;;;13.88;100.00
36828;BME280;22766;48.042;11.192;2023-05-10T08:16:19;94633.00;;;13.63;100.00
36828;BME280;22766;48.042;11.192;2023-05-10T08:18:46;94629.41;;;13.35;100.00
36828;BME280;22766;48.042;11.192;2023-05-10T08:21:14;94635.06;;;13.39;100.00
36828;BME280;22766;48.042;11.192;2023-05-10T08:23:40;94639.88;;;13.42;100.00
36828;BME280;22766;48.042;11.192;2023-05-10T08:26:07;94641.22;;;13.52;100.00
36828;BME280;22766;48.042;11.192;2023-05-10T08:28:34;94644.34;;;13.77;100.00
36828;BME280;22766;48.042;11.192;2023-05-10T08:31:01;94637.84;;;14.17;100.00
36828;BME280;22766;48.042;11.192;2023-05-10T08:33:27;94643.19;;;14.65;100.00
36828;BME280;22766;48.042;11.192;2023-05-10T08:35:54;94636.34;;;15.07;100.00
36828;BME280;22766;48.042;11.192;2023-05-10T08:38:20;94647.47;;;15.77;100.00
36828;BME280;22766;48.042;11.192;2023-05-10T08:40:48;94644.31;;;15.81;100.00
36828;BME280;22766;48.042;11.192;2023-05-10T08:43:17;94649.19;;;15.98;100.00
36828;BME280;22766;48.042;11.192;2023-05-10T08:45:44;94647.44;;;16.11;100.00
36828;BME280;22766;48.042;11.192;2023-05-10T08:48:15;94650.69;;;16.20;100.00
36828;BME280;22766;48.042;11.192;2023-05-10T08:50:42;94646.16;;;15.60;100.00
36828;BME280;22766;48.042;11.192;2023-05-10T08:53:13;94643.28;;;15.48;100.00
36828;BME280;22766;48.042;11.192;2023-05-10T08:55:41;94645.50;;;15.24;100.00
36828;BME280;22766;48.042;11.192;2023-05-10T08:58:09;94649.31;;;15.28;100.00
36828;BME280;22766;48.042;11.192;2023-05-10T09:00:36;94649.28;;;15.21;100.00
36828;BME280;22766;48.042;11.192;2023-05-10T09:03:04;94647.16;;;15.04;100.00
36828;BME280;22766;48.042;11.192;2023-05-10T09:05:32;94642.19;;;14.87;100.00
36828;BME280;22766;48.042;11.192;2023-05-10T09:07:59;94646.50;;;14.74;100.00
36828;BME280;22766;48.042;11.192;2023-05-10T09:10:27;94644.63;;;14.89;100.00
36828;BME280;22766;48.042;11.192;2023-05-10T09:12:56;94646.59;;;15.08;100.00
36828;BME280;22766;48.042;11.192;2023-05-10T09:15:25;94644.97;;;15.97;100.00
36828;BME280;22766;48.042;11.192;2023-05-10T09:17:52;94644.47;;;16.14;100.00
36828;BME280;22766;48.042;11.192;2023-05-10T09:20:18;94647.03;;;16.61;100.00
36828;BME280;22766;48.042;11.192;2023-05-10T09:22:45;94639.88;;;17.03;100.00
36828;BME280;22766;48.042;11.192;2023-05-10T09:25:16;94644.91;;;17.11;100.00
36828;BME280;22766;48.042;11.192;2023-05-10T09:27:44;94642.88;;;17.19;100.00
36828;BME280;22766;48.042;11.192;2023-05-10T09:30:27;94636.66;;;17.33;100.00
36828;BME280;22766;48.042;11.192;2023-05-10T09:32:55;94641.69;;;17.22;100.00
36828;BME280;22766;48.042;11.192;2023-05-10T09:35:24;94640.25;;;16.80;100.00
36828;BME280;22766;48.042;11.192;2023-05-10T09:37:57;94639.88;;;16.16;100.00
36828;BME280;22766;48.042;11.192;2023-05-10T09:40:26;94643.28;;;15.82;100.00
36828;BME280;22766;48.042;11.192;2023-05-10T09:43:07;94645.72;;;15.50;100.00
36828;BME280;22766;48.042;11.192;2023-05-10T09:45:34;94650.78;;;15.37;100.00
36828;BME280;22766;48.042;11.192;2023-05-10T09:48:04;94644.84;;;15.15;100.00
36828;BME280;22766;48.042;11.192;2023-05-10T09:50:31;94645.91;;;14.99;100.00
36828;BME280;22766;48.042;11.192;2023-05-10T09:53:00;94644.97;;;14.86;100.00
36828;BME280;22766;48.042;11.192;2023-05-10T09:58:04;94649.31;;;14.79;100.00
36828;BME280;22766;48.042;11.192;2023-05-10T10:00:37;94641.44;;;14.93;100.00
36828;BME280;22766;48.042;11.192;2023-05-10T10:03:04;94637.47;;;15.46;100.00
36828;BME280;22766;48.042;11.192;2023-05-10T10:05:35;94637.81;;;15.71;100.00
36828;BME280;22766;48.042;11.192;2023-05-10T10:08:04;94640.09;;;15.80;100.00
36828;BME280;22766;48.042;11.192;2023-05-10T10:10:32;94641.47;;;16.17;100.00
36828;BME280;22766;48.042;11.192;2023-05-10T10:12:59;94641.53;;;16.43;100.00
36828;BME280;22766;48.042;11.192;2023-05-10T10:15:26;94637.88;;;16.25;100.00
36828;BME280;22766;48.042;11.192;2023-05-10T10:17:53;94642.34;;;15.90;100.00
36828;BME280;22766;48.042;11.192;2023-05-10T10:20:22;94651.09;;;15.48;100.00
36828;BME280;22766;48.042;11.192;2023-05-10T10:22:49;94655.16;;;14.81;100.00
36828;BME280;22766;48.042;11.192;2023-05-10T10:25:17;94658.59;;;14.67;100.00
36828;BME280;22766;48.042;11.192;2023-05-10T10:30:41;94664.19;;;13.70;100.00
36828;BME280;22766;48.042;11.192;2023-05-10T10:33:33;94658.75;;;13.50;100.00
36828;BME280;22766;48.042;11.192;2023-05-10T10:36:05;94666.34;;;13.37;100.00
36828;BME280;22766;48.042;11.192;2023-05-10T10:55:19;94664.31;;;12.42;100.00
36828;BME280;22766;48.042;11.192;2023-05-10T10:57:56;94675.09;;;12.23;100.00
36828;BME280;22766;48.042;11.192;2023-05-10T11:00:36;94662.66;;;12.49;100.00
36828;BME280;22766;48.042;11.192;2023-05-10T11:03:07;94666.16;;;12.56;100.00
36828;BME280;22766;48.042;11.192;2023-05-10T11:05:45;94661.88;;;12.63;100.00
36828;BME280;22766;48.042;11.192;2023-05-10T11:08:19;94661.25;;;12.61;100.00
36828;BME280;22766;48.042;11.192;2023-05-10T11:13:29;94669.28;;;12.52;100.00
36828;BME280;22766;48.042;11.192;2023-05-10T11:15:57;94664.78;;;12.46;100.00
36828;BME280;22766;48.042;11.192;2023-05-10T11:18:26;94667.69;;;12.43;100.00
36828;BME280;22766;48.042;11.192;2023-05-10T11:21:00;94662.28;;;12.52;100.00
36828;BME280;22766;48.042;11.192;2023-05-10T11:26:07;94665.53;;;12.54;100.00
36828;BME280;22766;48.042;11.192;2023-05-10T11:28:43;94675.19;;;12.60;100.00
36828;BME280;22766;48.042;11.192;2023-05-10T11:31:13;94664.47;;;12.41;100.00
36828;BME280;22766;48.042;11.192;2023-05-10T11:33:50;94670.59;;;12.48;100.00
36828;BME280;22766;48.042;11.192;2023-05-10T11:36:29;94666.69;;;12.52;100.00
36828;BME280;22766;48.042;11.192;2023-05-10T11:38:56;94668.78;;;12.48;100.00
36828;BME280;22766;48.042;11.192;2023-05-10T11:41:23;94665.47;;;12.40;100.00
36828;BME280;22766;48.042;11.192;2023-05-10T11:43:54;94669.19;;;12.60;100.00
36828;BME280;22766;48.042;11.192;2023-05-10T11:46:23;94668.41;;;12.82;100.00
36828;BME280;22766;48.042;11.192;2023-05-10T11:48:57;94659.78;;;12.89;100.00
36828;BME280;22766;48.042;11.192;2023-05-10T11:51:25;94665.81;;;12.82;100.00
36828;BME280;22766;48.042;11.192;2023-05-10T11:53:55;94661.03;;;12.93;100.00
36828;BME280;22766;48.042;11.192;2023-05-10T11:56:22;94658.09;;;12.96;100.00
36828;BME280;22766;48.042;11.192;2023-05-10T11:58:57;94658.16;;;12.88;100.00
36828;BME280;22766;48.042;11.192;2023-05-10T12:01:25;94666.22;;;12.93;100.00
36828;BME280;22766;48.042;11.192;2023-05-10T12:03:55;94664.84;;;12.83;100.00
36828;BME280;22766;48.042;11.192;2023-05-10T12:06:32;94673.81;;;12.95;100.00
36828;BME280;22766;48.042;11.192;2023-05-10T12:09:05;94685.09;;;13.25;100.00
36828;BME280;22766;48.042;11.192;2023-05-10T12:11:32;94683.72;;;13.14;100.00
36828;BME280;22766;48.042;11.192;2023-05-10T12:14:04;94674.38;;;12.82;100.00
36828;BME280;22766;48.042;11.192;2023-05-10T12:16:31;94677.38;;;12.71;100.00
36828;BME280;22766;48.042;11.192;2023-05-10T12:19:00;94689.22;;;12.43;100.00
36828;BME280;22766;48.042;11.192;2023-05-10T12:21:28;94702.94;;;12.52;100.00
36828;BME280;22766;48.042;11.192;2023-05-10T12:23:59;94705.84;;;12.49;100.00
36828;BME280;22766;48.042;11.192;2023-05-10T12:26:27;94700.22;;;12.14;100.00
36828;BME280;22766;48.042;11.192;2023-05-10T12:28:55;94701.25;;;11.97;100.00
36828;BME280;22766;48.042;11.192;2023-05-10T12:31:54;94694.97;;;11.84;100.00
36828;BME280;22766;48.042;11.192;2023-05-10T12:34:31;94707.13;;;11.83;100.00
36828;BME280;22766;48.042;11.192;2023-05-10T12:36:59;94712.59;;;11.88;100.00
36828;BME280;22766;48.042;11.192;2023-05-10T12:39:26;94700.34;;;11.82;100.00
36828;BME280;22766;48.042;11.192;2023-05-10T12:41:52;94700.81;;;11.78;100.00
36828;BME280;22766;48.042;11.192;2023-05-10T12:44:19;94701.16;;;11.83;100.00
36828;BME280;22766;48.042;11.192;2023-05-10T12:46:46;94699.19;;;11.85;100.00
36828;BME280;22766;48.042;11.192;2023-05-10T12:49:12;94703.56;;;11.84;100.00
36828;BME280;22766;48.042;11.192;2023-05-10T12:51:39;94702.72;;;11.92;100.00
36828;BME280;22766;48.042;11.192;2023-05-10T12:54:06;94700.13;;;12.00;100.00
36828;BME280;22766;48.042;11.192;2023-05-10T12:56:32;94703.00;;;12.05;100.00
36828;BME280;22766;48.042;11.192;2023-05-10T12:58:59;94706.88;;;12.09;100.00
36828;BME280;22766;48.042;11.192;2023-05-10T13:01:26;94706.50;;;12.12;100.00
36828;BME280;22766;48.042;11.192;2023-05-10T13:03:53;94716.13;;;12.34;100.00
36828;BME280;22766;48.042;11.192;2023-05-10T13:06:19;94699.34;;;12.53;100.00
36828;BME280;22766;48.042;11.192;2023-05-10T13:08:46;94710.31;;;12.63;100.00
36828;BME280;22766;48.042;11.192;2023-05-10T13:11:13;94714.53;;;12.56;100.00
36828;BME280;22766;48.042;11.192;2023-05-10T13:13:42;94715.19;;;12.58;100.00
36828;BME280;22766;48.042;11.192;2023-05-10T13:16:09;94721.47;;;12.63;100.00
36828;BME280;22766;48.042;11.192;2023-05-10T13:18:36;94719.56;;;12.57;100.00
36828;BME280;22766;48.042;11.192;2023-05-10T13:21:03;94727.00;;;12.60;100.00
36828;BME280;22766;48.042;11.192;2023-05-10T13:23:31;94728.94;;;12.58;100.00
36828;BME280;22766;48.042;11.192;2023-05-10T13:25:58;94728.47;;;12.55;100.00
36828;BME280;22766;48.042;11.192;2023-05-10T13:28:25;94726.91;;;12.46;100.00
36828;BME280;22766;48.042;11.192;2023-05-10T13:30:52;94732.16;;;12.30;100.00
36828;BME280;22766;48.042;11.192;2023-05-10T13:33:19;94732.38;;;12.20;100.00
36828;BME280;22766;48.042;11.192;2023-05-10T13:35:46;94739.88;;;12.07;100.00